sensor_id;sensor_type;location;lat;lon;timestamp;pressure;altitude;pressure_sealevel;temperature;humidity
62510;BME280;48558;48.242;11.654;2023-04-01T00:03:13;95008.22;;;8.10;100.00
62510;BME280;48558;48.242;11.654;2023-04-01T00:07:25;95005.03;;;7.97;100.00
62510;BME280;48558;48.242;11.654;2023-04-01T00:11:41;95006.47;;;8.07;100.00
62510;BME280;48558;48.242;11.654;2023-04-01T00:15:55;94990.34;;;8.00;100.00
62510;BME280;48558;48.242;11.654;2023-04-01T00:20:11;94999.44;;;7.91;100.00
62510;BME280;48558;48.242;11.654;2023-04-01T00:24:24;94988.84;;;7.84;100.00
62510;BME280;48558;48.242;11.654;2023-04-01T00:28:37;94980.22;;;7.77;100.00
62510;BME280;48558;48.242;11.654;2023-04-01T00:32:52;94974.84;;;7.68;100.00
62510;BME280;48558;48.242;11.654;2023-04-01T00:37:15;94989.41;;;7.74;100.00
62510;BME280;48558;48.242;11.654;2023-04-01T00:41:28;94988.19;;;7.75;100.00
62510;BME280;48558;48.242;11.654;2023-04-01T00:45:43;94992.16;;;7.74;100.00
62510;BME280;48558;48.242;11.654;2023-04-01T00:49:56;94989.91;;;7.72;100.00
62510;BME280;48558;48.242;11.654;2023-04-01T00:54:09;94990.38;;;7.71;100.00
62510;BME280;48558;48.242;11.654;2023-04-01T00:58:24;94992.66;;;7.72;100.00
62510;BME280;48558;48.242;11.654;2023-04-01T01:02:50;94964.59;;;7.54;100.00
62510;BME280;48558;48.242;11.654;2023-04-01T01:07:15;94987.91;;;7.73;100.00
62510;BME280;48558;48.242;11.654;2023-04-01T01:11:41;94974.94;;;7.59;100.00
62510;BME280;48558;48.242;11.654;2023-04-01T01:16:05;94975.59;;;7.68;100.00
62510;BME280;48558;48.242;11.654;2023-04-01T01:24:59;94981.56;;;7.81;100.00
62510;BME280;48558;48.242;11.654;2023-04-01T01:39:50;94972.53;;;7.81;100.00
62510;BME280;48558;48.242;11.654;2023-04-01T01:44:08;94974.72;;;7.77;100.00
62510;BME280;48558;48.242;11.654;2023-04-01T01:48:24;94976.91;;;7.73;100.00
62510;BME280;48558;48.242;11.654;2023-04-01T01:52:39;94981.28;;;7.79;100.00
62510;BME280;48558;48.242;11.654;2023-04-01T01:56:58;94974.25;;;7.78;100.00
62510;BME280;48558;48.242;11.654;2023-04-01T02:01:20;94976.91;;;7.73;100.00
62510;BME280;48558;48.242;11.654;2023-04-01T02:05:50;94988.75;;;7.79;100.00
62510;BME280;48558;48.242;11.654;2023-04-01T02:10:03;94986.28;;;7.81;100.00
62510;BME280;48558;48.242;11.654;2023-04-01T02:14:20;94992.16;;;7.74;100.00
62510;BME280;48558;48.242;11.654;2023-04-01T02:18:36;94990.84;;;7.84;100.00
62510;BME280;48558;48.242;11.654;2023-04-01T02:22:53;94990.63;;;7.87;100.00
62510;BME280;48558;48.242;11.654;2023-04-01T02:27:09;94992.44;;;7.90;100.00
62510;BME280;48558;48.242;11.654;2023-04-01T02:31:23;94979.56;;;7.82;100.00
62510;BME280;48558;48.242;11.654;2023-04-01T02:35:36;94988.38;;;7.86;100.00
62510;BME280;48558;48.242;11.654;2023-04-01T02:39:49;94977.09;;;7.84;100.00
62510;BME280;48558;48.242;11.654;2023-04-01T02:44:02;94991.41;;;7.88;100.00
62510;BME280;48558;48.242;11.654;2023-04-01T02:48:15;95001.25;;;7.94;100.00
62510;BME280;48558;48.242;11.654;2023-04-01T02:52:28;95001.63;;;7.87;100.00
62510;BME280;48558;48.242;11.654;2023-04-01T02:56:41;94993.66;;;7.89;100.00
62510;BME280;48558;48.242;11.654;2023-04-01T03:00:58;94988.47;;;7.77;100.00
62510;BME280;48558;48.242;11.654;2023-04-01T03:05:10;94997.28;;;7.81;100.00
62510;BME280;48558;48.242;11.654;2023-04-01T03:09:23;95004.75;;;7.95;100.00
62510;BME280;48558;48.242;11.654;2023-04-01T03:13:35;95010.66;;;7.88;100.00
62510;BME280;48558;48.242;11.654;2023-04-01T03:17:48;95008.84;;;7.85;100.00
62510;BME280;48558;48.242;11.654;2023-04-01T03:22:00;95002.72;;;7.75;100.00
62510;BME280;48558;48.242;11.654;2023-04-01T03:26:13;95004.97;;;7.77;100.00
62510;BME280;48558;48.242;11.654;2023-04-01T03:30:26;95019.88;;;7.70;100.00
62510;BME280;48558;48.242;11.654;2023-04-01T03:34:39;95022.44;;;7.59;100.00
62510;BME280;48558;48.242;11.654;2023-04-01T03:38:52;95030.75;;;7.65;100.00
62510;BME280;48558;48.242;11.654;2023-04-01T03:43:04;95040.72;;;7.62;100.00
62510;BME280;48558;48.242;11.654;2023-04-01T03:47:30;95044.59;;;7.56;100.00
62510;BME280;48558;48.242;11.654;2023-04-01T03:51:43;95053.59;;;7.42;100.00
62510;BME280;48558;48.242;11.654;2023-04-01T03:55:56;95046.59;;;7.41;100.00
62510;BME280;48558;48.242;11.654;2023-04-01T04:00:09;95051.03;;;7.38;100.00
62510;BME280;48558;48.242;11.654;2023-04-01T04:04:22;95043.09;;;7.55;100.00
62510;BME280;48558;48.242;11.654;2023-04-01T04:08:43;95061.38;;;7.58;100.00
62510;BME280;48558;48.242;11.654;2023-04-01T04:12:56;95053.13;;;7.58;100.00
62510;BME280;48558;48.242;11.654;2023-04-01T04:17:12;95053.53;;;7.51;100.00
62510;BME280;48558;48.242;11.654;2023-04-01T04:21:39;95049.16;;;7.59;100.00
62510;BME280;48558;48.242;11.654;2023-04-01T04:26:00;95056.72;;;7.49;100.00
62510;BME280;48558;48.242;11.654;2023-04-01T04:30:15;95052.75;;;7.50;100.00
62510;BME280;48558;48.242;11.654;2023-04-01T04:34:28;95052.38;;;7.57;100.00
62510;BME280;48558;48.242;11.654;2023-04-01T04:38:40;95057.69;;;7.61;100.00
62510;BME280;48558;48.242;11.654;2023-04-01T04:42:53;95059.94;;;7.62;100.00
62510;BME280;48558;48.242;11.654;2023-04-01T04:47:05;95060.81;;;7.54;100.00
62510;BME280;48558;48.242;11.654;2023-04-01T04:51:20;95053.69;;;7.47;100.00
62510;BME280;48558;48.242;11.654;2023-04-01T04:55:33;95073.69;;;7.48;100.00
62510;BME280;48558;48.242;11.654;2023-04-01T04:59:46;95072.75;;;7.51;100.00
62510;BME280;48558;48.242;11.654;2023-04-01T05:03:59;95070.00;;;7.65;100.00
62510;BME280;48558;48.242;11.654;2023-04-01T05:08:11;95068.97;;;7.63;100.00
62510;BME280;48558;48.242;11.654;2023-04-01T05:12:24;95050.69;;;7.60;100.00
62510;BME280;48558;48.242;11.654;2023-04-01T05:16:36;95059.84;;;7.71;100.00
62510;BME280;48558;48.242;11.654;2023-04-01T05:20:51;95062.91;;;7.88;100.00
62510;BME280;48558;48.242;11.654;2023-04-01T05:25:06;95048.38;;;7.87;100.00
62510;BME280;48558;48.242;11.654;2023-04-01T05:29:19;95065.00;;;7.93;100.00
62510;BME280;48558;48.242;11.654;2023-04-01T05:33:32;95049.44;;;8.05;100.00
62510;BME280;48558;48.242;11.654;2023-04-01T05:37:45;95062.69;;;8.21;100.00
62510;BME280;48558;48.242;11.654;2023-04-01T05:42:08;95065.06;;;8.28;100.00
62510;BME280;48558;48.242;11.654;2023-04-01T05:46:24;95060.19;;;8.37;100.00
62510;BME280;48558;48.242;11.654;2023-04-01T05:50:36;95055.66;;;8.34;100.00
62510;BME280;48558;48.242;11.654;2023-04-01T05:54:49;95069.22;;;8.23;100.00
62510;BME280;48558;48.242;11.654;2023-04-01T05:59:01;95057.09;;;8.30;100.00
62510;BME280;48558;48.242;11.654;2023-04-01T06:03:14;95070.91;;;8.50;100.00
62510;BME280;48558;48.242;11.654;2023-04-01T06:07:28;95076.13;;;8.48;100.00
62510;BME280;48558;48.242;11.654;2023-04-01T06:21:21;95070.81;;;8.44;100.00
62510;BME280;48558;48.242;11.654;2023-04-01T06:25:49;95062.56;;;8.44;100.00
62510;BME280;48558;48.242;11.654;2023-04-01T06:45:05;95067.09;;;9.22;100.00
62510;BME280;48558;48.242;11.654;2023-04-01T06:54:20;95062.09;;;9.47;100.00
62510;BME280;48558;48.242;11.654;2023-04-01T06:58:42;95058.88;;;9.28;100.00
62510;BME280;48558;48.242;11.654;2023-04-01T07:03:05;95078.66;;;9.26;100.00
62510;BME280;48558;48.242;11.654;2023-04-01T07:07:58;95054.53;;;9.67;100.00
62510;BME280;48558;48.242;11.654;2023-04-01T07:12:33;95076.22;;;9.80;100.00
62510;BME280;48558;48.242;11.654;2023-04-01T07:17:20;95083.50;;;9.57;100.00
62510;BME280;48558;48.242;11.654;2023-04-01T07:21:44;95085.47;;;9.51;100.00
62510;BME280;48558;48.242;11.654;2023-04-01T07:26:26;95087.53;;;9.82;100.00
62510;BME280;48558;48.242;11.654;2023-04-01T07:41:03;95091.16;;;9.93;100.00
62510;BME280;48558;48.242;11.654;2023-04-01T08:13:16;95062.91;;;10.04;100.00
62510;BME280;48558;48.242;11.654;2023-04-01T08:22:51;95082.09;;;10.50;100.00
62510;BME280;48558;48.242;11.654;2023-04-01T08:27:43;95092.81;;;10.37;100.00
62510;BME280;48558;48.242;11.654;2023-04-01T08:32:21;95076.88;;;10.57;100.00
62510;BME280;48558;48.242;11.654;2023-04-01T08:36:41;95068.00;;;10.42;100.00
62510;BME280;48558;48.242;11.654;2023-04-01T08:45:26;95059.59;;;11.86;94.01
62510;BME280;48558;48.242;11.654;2023-04-01T09:09:45;95061.66;;;11.26;95.79
62510;BME280;48558;48.242;11.654;2023-04-01T09:47:39;95029.94;;;12.14;86.29
62510;BME280;48558;48.242;11.654;2023-04-01T09:56:23;95029.41;;;12.54;85.04
62510;BME280;48558;48.242;11.654;2023-04-01T10:10:06;95030.69;;;12.31;86.09
62510;BME280;48558;48.242;11.654;2023-04-01T10:34:41;95031.69;;;12.17;85.70
62510;BME280;48558;48.242;11.654;2023-04-01T11:12:59;95041.09;;;11.33;100.00
62510;BME280;48558;48.242;11.654;2023-04-01T11:18:20;95053.94;;;11.41;100.00
62510;BME280;48558;48.242;11.654;2023-04-01T11:32:11;95052.19;;;11.49;100.00
62510;BME280;48558;48.242;11.654;2023-04-01T11:36:51;95058.75;;;11.46;100.00
62510;BME280;48558;48.242;11.654;2023-04-01T11:45:50;95071.66;;;11.13;100.00
62510;BME280;48558;48.242;11.654;2023-04-01T11:50:26;95089.25;;;10.67;100.00
62510;BME280;48558;48.242;11.654;2023-04-01T11:54:51;95102.84;;;10.08;100.00
62510;BME280;48558;48.242;11.654;2023-04-01T12:04:27;95104.78;;;9.31;100.00
62510;BME280;48558;48.242;11.654;2023-04-01T12:27:41;95078.84;;;9.43;100.00
62510;BME280;48558;48.242;11.654;2023-04-01T12:32:09;95094.84;;;9.39;100.00
62510;BME280;48558;48.242;11.654;2023-04-01T12:41:39;95101.63;;;9.18;100.00
62510;BME280;48558;48.242;11.654;2023-04-01T12:46:12;95094.31;;;9.15;100.00
62510;BME280;48558;48.242;11.654;2023-04-01T12:55:42;95089.47;;;9.30;100.00
62510;BME280;48558;48.242;11.654;2023-04-01T13:18:20;95090.88;;;9.00;100.00
62510;BME280;48558;48.242;11.654;2023-04-01T13:27:49;95104.78;;;9.11;100.00
62510;BME280;48558;48.242;11.654;2023-04-01T13:32:25;95108.34;;;9.17;100.00
62510;BME280;48558;48.242;11.654;2023-04-01T14:00:10;95102.06;;;9.36;100.00
62510;BME280;48558;48.242;11.654;2023-04-01T14:18:45;95090.44;;;9.73;100.00
62510;BME280;48558;48.242;11.654;2023-04-01T14:33:41;95106.69;;;10.17;100.00
62510;BME280;48558;48.242;11.654;2023-04-01T14:38:29;95102.97;;;10.20;100.00
62510;BME280;48558;48.242;11.654;2023-04-01T14:47:53;95097.03;;;10.06;100.00
62510;BME280;48558;48.242;11.654;2023-04-01T14:52:34;95110.56;;;10.04;100.00
62510;BME280;48558;48.242;11.654;2023-04-01T14:56:51;95112.97;;;10.48;100.00
62510;BME280;48558;48.242;11.654;2023-04-01T15:25:25;95118.53;;;9.97;100.00
62510;BME280;48558;48.242;11.654;2023-04-01T15:34:09;95129.56;;;9.71;100.00
62510;BME280;48558;48.242;11.654;2023-04-01T15:38:45;95133.94;;;9.83;100.00
62510;BME280;48558;48.242;11.654;2023-04-01T15:43:22;95135.84;;;9.72;100.00
62510;BME280;48558;48.242;11.654;2023-04-01T15:47:52;95140.66;;;9.77;100.00
62510;BME280;48558;48.242;11.654;2023-04-01T15:57:52;95139.13;;;9.76;100.00
62510;BME280;48558;48.242;11.654;2023-04-01T16:07:27;95135.84;;;9.72;100.00
62510;BME280;48558;48.242;11.654;2023-04-01T16:12:15;95147.78;;;9.89;100.00
62510;BME280;48558;48.242;11.654;2023-04-01T16:16:58;95148.88;;;9.97;100.00
62510;BME280;48558;48.242;11.654;2023-04-01T16:21:27;95145.47;;;10.07;100.00
62510;BME280;48558;48.242;11.654;2023-04-01T16:26:13;95153.38;;;9.94;100.00
62510;BME280;48558;48.242;11.654;2023-04-01T16:30:42;95143.84;;;9.95;100.00
62510;BME280;48558;48.242;11.654;2023-04-01T16:40:24;95131.19;;;9.83;100.00
62510;BME280;48558;48.242;11.654;2023-04-01T16:58:42;95153.34;;;9.69;100.00
62510;BME280;48558;48.242;11.654;2023-04-01T17:17:42;95171.34;;;9.64;100.00
62510;BME280;48558;48.242;11.654;2023-04-01T17:26:42;95164.16;;;9.52;100.00
62510;BME280;48558;48.242;11.654;2023-04-01T17:31:10;95177.94;;;9.52;100.00
62510;BME280;48558;48.242;11.654;2023-04-01T17:35:34;95163.75;;;9.39;100.00
62510;BME280;48558;48.242;11.654;2023-04-01T17:59:19;95203.63;;;9.38;100.00
62510;BME280;48558;48.242;11.654;2023-04-01T18:18:16;95221.38;;;9.37;100.00
62510;BME280;48558;48.242;11.654;2023-04-01T18:32:48;95226.34;;;9.33;100.00
62510;BME280;48558;48.242;11.654;2023-04-01T18:37:18;95231.19;;;9.38;100.00
62510;BME280;48558;48.242;11.654;2023-04-01T18:56:13;95252.16;;;9.15;100.00
62510;BME280;48558;48.242;11.654;2023-04-01T19:00:33;95251.38;;;9.15;100.00
62510;BME280;48558;48.242;11.654;2023-04-01T19:05:14;95257.50;;;9.04;100.00
62510;BME280;48558;48.242;11.654;2023-04-01T19:09:45;95276.63;;;8.93;100.00
62510;BME280;48558;48.242;11.654;2023-04-01T19:14:14;95255.03;;;9.06;100.00
62510;BME280;48558;48.242;11.654;2023-04-01T19:27:52;95275.75;;;9.02;100.00
62510;BME280;48558;48.242;11.654;2023-04-01T19:37:25;95298.94;;;8.95;100.00
62510;BME280;48558;48.242;11.654;2023-04-01T19:42:16;95310.50;;;8.85;100.00
62510;BME280;48558;48.242;11.654;2023-04-01T19:46:48;95309.19;;;8.80;100.00
62510;BME280;48558;48.242;11.654;2023-04-01T19:55:42;95305.84;;;8.76;100.00
62510;BME280;48558;48.242;11.654;2023-04-01T20:00:15;95311.56;;;8.73;100.00
62510;BME280;48558;48.242;11.654;2023-04-01T20:04:40;95306.88;;;8.64;100.00
62510;BME280;48558;48.242;11.654;2023-04-01T20:09:24;95314.78;;;8.71;100.00
62510;BME280;48558;48.242;11.654;2023-04-01T20:18:52;95325.16;;;8.61;100.00
62510;BME280;48558;48.242;11.654;2023-04-01T20:28:04;95331.75;;;8.40;100.00
62510;BME280;48558;48.242;11.654;2023-04-01T20:56:44;95339.53;;;8.42;100.00
62510;BME280;48558;48.242;11.654;2023-04-01T21:01:29;95331.38;;;8.24;100.00
62510;BME280;48558;48.242;11.654;2023-04-01T21:10:41;95345.91;;;8.24;100.00
62510;BME280;48558;48.242;11.654;2023-04-01T21:33:54;95362.78;;;8.17;100.00
62510;BME280;48558;48.242;11.654;2023-04-01T22:12:35;95396.84;;;8.20;100.00
62510;BME280;48558;48.242;11.654;2023-04-01T22:31:07;95402.53;;;8.16;100.00
62510;BME280;48558;48.242;11.654;2023-04-01T22:35:54;95404.41;;;8.10;100.00
62510;BME280;48558;48.242;11.654;2023-04-01T22:50:18;95411.44;;;8.11;100.00
62510;BME280;48558;48.242;11.654;2023-04-01T22:54:46;95416.81;;;8.06;100.00
62510;BME280;48558;48.242;11.654;2023-04-01T22:59:15;95409.28;;;7.82;100.00
62510;BME280;48558;48.242;11.654;2023-04-01T23:03:34;95414.88;;;7.97;100.00
62510;BME280;48558;48.242;11.654;2023-04-01T23:08:26;95420.44;;;7.88;100.00
62510;BME280;48558;48.242;11.654;2023-04-01T23:12:51;95420.22;;;7.68;100.00
62510;BME280;48558;48.242;11.654;2023-04-01T23:21:48;95424.03;;;7.70;100.00
62510;BME280;48558;48.242;11.654;2023-04-01T23:35:01;95433.34;;;7.73;100.00
62510;BME280;48558;48.242;11.654;2023-04-01T23:39:22;95435.06;;;7.61;100.00
62510;BME280;48558;48.242;11.654;2023-04-01T23:43:40;95429.72;;;7.58;100.00
62510;BME280;48558;48.242;11.654;2023-04-01T23:47:55;95432.94;;;7.56;100.00
62510;BME280;48558;48.242;11.654;2023-04-01T23:57:11;95446.31;;;7.72;100.00
